sensor_id;sensor_type;location;lat;lon;timestamp;P1;durP1;ratioP1;P2;durP2;ratioP2
16543;SDS011;8384;47.996;7.786;2023-03-02T00:00:43;35.72;;;32.42;;
16543;SDS011;8384;47.996;7.786;2023-03-02T00:03:10;33.35;;;30.25;;
16543;SDS011;8384;47.996;7.786;2023-03-02T00:05:37;33.90;;;30.70;;
16543;SDS011;8384;47.996;7.786;2023-03-02T00:08:05;36.25;;;32.85;;
16543;SDS011;8384;47.996;7.786;2023-03-02T00:10:32;36.55;;;33.05;;
16543;SDS011;8384;47.996;7.786;2023-03-02T00:12:58;34.75;;;31.45;;
16543;SDS011;8384;47.996;7.786;2023-03-02T00:15:23;35.23;;;31.93;;
16543;SDS011;8384;47.996;7.786;2023-03-02T00:17:48;32.47;;;29.47;;
16543;SDS011;8384;47.996;7.786;2023-03-02T00:20:13;33.50;;;30.30;;
16543;SDS011;8384;47.996;7.786;2023-03-02T00:22:42;37.00;;;33.47;;
16543;SDS011;8384;47.996;7.786;2023-03-02T00:25:09;36.42;;;32.83;;
16543;SDS011;8384;47.996;7.786;2023-03-02T00:27:35;34.83;;;31.53;;
16543;SDS011;8384;47.996;7.786;2023-03-02T00:30:01;35.10;;;31.77;;
16543;SDS011;8384;47.996;7.786;2023-03-02T00:32:26;36.13;;;32.72;;
16543;SDS011;8384;47.996;7.786;2023-03-02T00:34:51;35.50;;;32.00;;
16543;SDS011;8384;47.996;7.786;2023-03-02T00:37:17;35.60;;;32.13;;
16543;SDS011;8384;47.996;7.786;2023-03-02T00:39:42;33.90;;;30.60;;
16543;SDS011;8384;47.996;7.786;2023-03-02T00:42:08;33.90;;;30.70;;
16543;SDS011;8384;47.996;7.786;2023-03-02T00:44:33;34.87;;;31.43;;
16543;SDS011;8384;47.996;7.786;2023-03-02T00:46:58;34.27;;;30.97;;
16543;SDS011;8384;47.996;7.786;2023-03-02T00:49:24;35.17;;;31.67;;
16543;SDS011;8384;47.996;7.786;2023-03-02T00:51:49;32.92;;;29.67;;
16543;SDS011;8384;47.996;7.786;2023-03-02T00:54:15;33.55;;;30.25;;
16543;SDS011;8384;47.996;7.786;2023-03-02T00:56:40;33.83;;;30.53;;
16543;SDS011;8384;47.996;7.786;2023-03-02T00:59:07;34.17;;;30.77;;
16543;SDS011;8384;47.996;7.786;2023-03-02T01:01:50;32.83;;;29.58;;
16543;SDS011;8384;47.996;7.786;2023-03-02T01:04:22;33.53;;;30.23;;
16543;SDS011;8384;47.996;7.786;2023-03-02T01:06:54;33.28;;;29.83;;
16543;SDS011;8384;47.996;7.786;2023-03-02T01:09:20;32.88;;;29.58;;
16543;SDS011;8384;47.996;7.786;2023-03-02T01:11:45;35.17;;;31.70;;
16543;SDS011;8384;47.996;7.786;2023-03-02T01:14:10;33.90;;;30.60;;
16543;SDS011;8384;47.996;7.786;2023-03-02T01:16:35;33.97;;;30.57;;
16543;SDS011;8384;47.996;7.786;2023-03-02T01:19:01;34.30;;;30.90;;
16543;SDS011;8384;47.996;7.786;2023-03-02T01:21:26;33.15;;;29.88;;
16543;SDS011;8384;47.996;7.786;2023-03-02T01:23:51;34.27;;;30.87;;
16543;SDS011;8384;47.996;7.786;2023-03-02T01:26:18;32.70;;;29.52;;
16543;SDS011;8384;47.996;7.786;2023-03-02T01:28:43;33.03;;;29.83;;
16543;SDS011;8384;47.996;7.786;2023-03-02T01:31:08;32.70;;;29.50;;
16543;SDS011;8384;47.996;7.786;2023-03-02T01:33:33;32.47;;;29.30;;
16543;SDS011;8384;47.996;7.786;2023-03-02T01:35:59;32.83;;;29.67;;
16543;SDS011;8384;47.996;7.786;2023-03-02T01:38:24;33.70;;;30.40;;
16543;SDS011;8384;47.996;7.786;2023-03-02T01:40:49;33.23;;;29.93;;
16543;SDS011;8384;47.996;7.786;2023-03-02T01:43:15;32.38;;;29.17;;
16543;SDS011;8384;47.996;7.786;2023-03-02T01:46:24;32.80;;;29.67;;
16543;SDS011;8384;47.996;7.786;2023-03-02T01:48:48;32.50;;;29.40;;
16543;SDS011;8384;47.996;7.786;2023-03-02T01:51:15;33.03;;;29.92;;
16543;SDS011;8384;47.996;7.786;2023-03-02T01:53:44;34.88;;;31.38;;
16543;SDS011;8384;47.996;7.786;2023-03-02T01:56:12;34.65;;;31.15;;
16543;SDS011;8384;47.996;7.786;2023-03-02T01:58:40;34.30;;;30.98;;
16543;SDS011;8384;47.996;7.786;2023-03-02T02:01:06;33.70;;;30.50;;
16543;SDS011;8384;47.996;7.786;2023-03-02T02:03:45;33.58;;;30.33;;
16543;SDS011;8384;47.996;7.786;2023-03-02T02:06:18;34.63;;;31.23;;
16543;SDS011;8384;47.996;7.786;2023-03-02T02:08:47;34.00;;;30.73;;
16543;SDS011;8384;47.996;7.786;2023-03-02T02:11:14;34.42;;;31.10;;
16543;SDS011;8384;47.996;7.786;2023-03-02T02:13:39;35.23;;;31.73;;
16543;SDS011;8384;47.996;7.786;2023-03-02T02:16:05;34.42;;;31.02;;
16543;SDS011;8384;47.996;7.786;2023-03-02T02:18:31;35.03;;;31.50;;
16543;SDS011;8384;47.996;7.786;2023-03-02T02:20:57;35.45;;;31.88;;
16543;SDS011;8384;47.996;7.786;2023-03-02T02:23:32;35.42;;;32.00;;
16543;SDS011;8384;47.996;7.786;2023-03-02T02:26:06;36.17;;;32.55;;
16543;SDS011;8384;47.996;7.786;2023-03-02T02:28:56;34.78;;;31.35;;
16543;SDS011;8384;47.996;7.786;2023-03-02T02:31:38;34.58;;;31.05;;
16543;SDS011;8384;47.996;7.786;2023-03-02T02:34:15;34.33;;;30.83;;
16543;SDS011;8384;47.996;7.786;2023-03-02T02:36:47;33.00;;;29.70;;
16543;SDS011;8384;47.996;7.786;2023-03-02T02:39:17;33.28;;;29.92;;
16543;SDS011;8384;47.996;7.786;2023-03-02T02:41:45;33.15;;;29.85;;
16543;SDS011;8384;47.996;7.786;2023-03-02T02:44:13;33.92;;;30.45;;
16543;SDS011;8384;47.996;7.786;2023-03-02T02:46:40;33.80;;;30.13;;
16543;SDS011;8384;47.996;7.786;2023-03-02T02:49:09;36.90;;;33.00;;
16543;SDS011;8384;47.996;7.786;2023-03-02T02:51:58;33.77;;;30.20;;
16543;SDS011;8384;47.996;7.786;2023-03-02T02:54:24;34.13;;;30.67;;
16543;SDS011;8384;47.996;7.786;2023-03-02T02:56:51;34.15;;;30.65;;
16543;SDS011;8384;47.996;7.786;2023-03-02T03:01:53;32.83;;;29.52;;
16543;SDS011;8384;47.996;7.786;2023-03-02T03:04:24;32.72;;;29.33;;
16543;SDS011;8384;47.996;7.786;2023-03-02T03:07:03;33.08;;;29.80;;
16543;SDS011;8384;47.996;7.786;2023-03-02T03:09:29;34.00;;;30.50;;
16543;SDS011;8384;47.996;7.786;2023-03-02T03:12:02;34.08;;;30.67;;
16543;SDS011;8384;47.996;7.786;2023-03-02T03:14:38;35.95;;;32.25;;
16543;SDS011;8384;47.996;7.786;2023-03-02T03:17:05;33.92;;;30.50;;
16543;SDS011;8384;47.996;7.786;2023-03-02T03:19:36;33.55;;;30.25;;
16543;SDS011;8384;47.996;7.786;2023-03-02T03:22:02;32.67;;;29.37;;
16543;SDS011;8384;47.996;7.786;2023-03-02T03:24:29;33.33;;;30.02;;
16543;SDS011;8384;47.996;7.786;2023-03-02T03:26:56;35.45;;;31.95;;
16543;SDS011;8384;47.996;7.786;2023-03-02T03:29:23;33.78;;;30.42;;
16543;SDS011;8384;47.996;7.786;2023-03-02T03:31:51;34.20;;;30.80;;
16543;SDS011;8384;47.996;7.786;2023-03-02T03:34:17;33.65;;;30.25;;
16543;SDS011;8384;47.996;7.786;2023-03-02T03:36:42;34.87;;;31.20;;
16543;SDS011;8384;47.996;7.786;2023-03-02T03:39:08;32.60;;;29.35;;
16543;SDS011;8384;47.996;7.786;2023-03-02T03:41:34;32.63;;;29.40;;
16543;SDS011;8384;47.996;7.786;2023-03-02T03:44:00;31.75;;;28.65;;
16543;SDS011;8384;47.996;7.786;2023-03-02T03:46:25;32.53;;;29.30;;
16543;SDS011;8384;47.996;7.786;2023-03-02T03:48:51;32.83;;;29.57;;
16543;SDS011;8384;47.996;7.786;2023-03-02T03:51:16;34.10;;;30.70;;
16543;SDS011;8384;47.996;7.786;2023-03-02T03:53:42;33.95;;;30.52;;
16543;SDS011;8384;47.996;7.786;2023-03-02T03:56:07;33.80;;;30.33;;
16543;SDS011;8384;47.996;7.786;2023-03-02T03:58:33;30.80;;;27.80;;
16543;SDS011;8384;47.996;7.786;2023-03-02T04:00:58;30.55;;;27.55;;
16543;SDS011;8384;47.996;7.786;2023-03-02T04:03:24;33.42;;;30.08;;
16543;SDS011;8384;47.996;7.786;2023-03-02T04:05:51;32.88;;;29.67;;
16543;SDS011;8384;47.996;7.786;2023-03-02T04:08:16;32.87;;;29.60;;
16543;SDS011;8384;47.996;7.786;2023-03-02T04:10:42;33.35;;;29.95;;
16543;SDS011;8384;47.996;7.786;2023-03-02T04:13:08;32.22;;;29.13;;
16543;SDS011;8384;47.996;7.786;2023-03-02T04:15:34;32.50;;;29.30;;
16543;SDS011;8384;47.996;7.786;2023-03-02T04:18:00;31.53;;;28.43;;
16543;SDS011;8384;47.996;7.786;2023-03-02T04:20:26;32.25;;;29.10;;
16543;SDS011;8384;47.996;7.786;2023-03-02T04:22:52;32.40;;;29.20;;
16543;SDS011;8384;47.996;7.786;2023-03-02T04:25:25;31.58;;;28.50;;
16543;SDS011;8384;47.996;7.786;2023-03-02T04:27:51;32.15;;;28.95;;
16543;SDS011;8384;47.996;7.786;2023-03-02T04:30:18;33.17;;;29.88;;
16543;SDS011;8384;47.996;7.786;2023-03-02T04:32:46;33.58;;;30.23;;
16543;SDS011;8384;47.996;7.786;2023-03-02T04:35:12;34.27;;;30.80;;
16543;SDS011;8384;47.996;7.786;2023-03-02T04:37:38;33.85;;;30.27;;
16543;SDS011;8384;47.996;7.786;2023-03-02T04:40:05;31.55;;;28.45;;
16543;SDS011;8384;47.996;7.786;2023-03-02T04:42:32;32.20;;;29.02;;
16543;SDS011;8384;47.996;7.786;2023-03-02T04:44:58;31.10;;;28.10;;
16543;SDS011;8384;47.996;7.786;2023-03-02T04:47:23;32.57;;;29.37;;
16543;SDS011;8384;47.996;7.786;2023-03-02T04:49:48;32.33;;;29.10;;
16543;SDS011;8384;47.996;7.786;2023-03-02T04:52:18;32.58;;;29.27;;
16543;SDS011;8384;47.996;7.786;2023-03-02T04:54:44;32.80;;;29.50;;
16543;SDS011;8384;47.996;7.786;2023-03-02T04:57:09;35.67;;;32.17;;
16543;SDS011;8384;47.996;7.786;2023-03-02T04:59:34;36.33;;;32.70;;
16543;SDS011;8384;47.996;7.786;2023-03-02T05:02:00;35.67;;;32.17;;
16543;SDS011;8384;47.996;7.786;2023-03-02T05:04:26;35.60;;;32.10;;
16543;SDS011;8384;47.996;7.786;2023-03-02T05:06:52;35.70;;;32.15;;
16543;SDS011;8384;47.996;7.786;2023-03-02T05:09:17;36.00;;;32.40;;
16543;SDS011;8384;47.996;7.786;2023-03-02T05:11:43;36.42;;;32.72;;
16543;SDS011;8384;47.996;7.786;2023-03-02T05:14:09;35.70;;;32.27;;
16543;SDS011;8384;47.996;7.786;2023-03-02T05:16:37;35.65;;;32.25;;
16543;SDS011;8384;47.996;7.786;2023-03-02T05:19:04;37.33;;;33.65;;
16543;SDS011;8384;47.996;7.786;2023-03-02T05:21:31;38.10;;;34.30;;
16543;SDS011;8384;47.996;7.786;2023-03-02T05:23:57;37.55;;;33.90;;
16543;SDS011;8384;47.996;7.786;2023-03-02T05:26:22;36.63;;;33.00;;
16543;SDS011;8384;47.996;7.786;2023-03-02T05:28:48;36.43;;;32.83;;
16543;SDS011;8384;47.996;7.786;2023-03-02T05:31:15;36.67;;;32.97;;
16543;SDS011;8384;47.996;7.786;2023-03-02T05:33:43;37.85;;;34.05;;
16543;SDS011;8384;47.996;7.786;2023-03-02T05:36:09;36.73;;;33.13;;
16543;SDS011;8384;47.996;7.786;2023-03-02T05:38:34;37.77;;;33.87;;
16543;SDS011;8384;47.996;7.786;2023-03-02T05:41:00;37.80;;;34.10;;
16543;SDS011;8384;47.996;7.786;2023-03-02T05:43:26;38.55;;;34.65;;
16543;SDS011;8384;47.996;7.786;2023-03-02T05:45:51;36.27;;;32.77;;
16543;SDS011;8384;47.996;7.786;2023-03-02T05:48:16;38.53;;;34.57;;
16543;SDS011;8384;47.996;7.786;2023-03-02T05:50:42;37.20;;;33.60;;
16543;SDS011;8384;47.996;7.786;2023-03-02T05:53:07;36.83;;;33.20;;
16543;SDS011;8384;47.996;7.786;2023-03-02T05:55:32;38.00;;;34.30;;
16543;SDS011;8384;47.996;7.786;2023-03-02T05:58:02;37.50;;;33.90;;
16543;SDS011;8384;47.996;7.786;2023-03-02T06:00:30;37.22;;;33.45;;
16543;SDS011;8384;47.996;7.786;2023-03-02T06:02:55;37.90;;;34.20;;
16543;SDS011;8384;47.996;7.786;2023-03-02T06:05:20;38.10;;;34.40;;
16543;SDS011;8384;47.996;7.786;2023-03-02T06:07:46;37.13;;;33.38;;
16543;SDS011;8384;47.996;7.786;2023-03-02T06:10:12;38.80;;;34.92;;
16543;SDS011;8384;47.996;7.786;2023-03-02T06:12:40;38.43;;;34.63;;
16543;SDS011;8384;47.996;7.786;2023-03-02T06:15:05;38.63;;;34.80;;
16543;SDS011;8384;47.996;7.786;2023-03-02T06:17:31;38.70;;;34.90;;
16543;SDS011;8384;47.996;7.786;2023-03-02T06:19:57;39.30;;;35.50;;
16543;SDS011;8384;47.996;7.786;2023-03-02T06:22:22;37.93;;;34.13;;
16543;SDS011;8384;47.996;7.786;2023-03-02T06:24:48;38.37;;;34.67;;
16543;SDS011;8384;47.996;7.786;2023-03-02T06:27:13;38.30;;;34.42;;
16543;SDS011;8384;47.996;7.786;2023-03-02T06:29:39;38.35;;;34.55;;
16543;SDS011;8384;47.996;7.786;2023-03-02T06:32:04;38.17;;;34.27;;
16543;SDS011;8384;47.996;7.786;2023-03-02T06:34:30;39.00;;;35.08;;
16543;SDS011;8384;47.996;7.786;2023-03-02T06:36:55;38.53;;;34.63;;
16543;SDS011;8384;47.996;7.786;2023-03-02T06:39:20;38.87;;;34.83;;
16543;SDS011;8384;47.996;7.786;2023-03-02T06:41:46;37.63;;;33.90;;
16543;SDS011;8384;47.996;7.786;2023-03-02T06:44:12;39.10;;;35.20;;
16543;SDS011;8384;47.996;7.786;2023-03-02T06:46:39;39.80;;;35.72;;
16543;SDS011;8384;47.996;7.786;2023-03-02T06:49:06;39.88;;;35.78;;
16543;SDS011;8384;47.996;7.786;2023-03-02T06:51:32;39.83;;;35.83;;
16543;SDS011;8384;47.996;7.786;2023-03-02T06:53:58;38.85;;;34.90;;
16543;SDS011;8384;47.996;7.786;2023-03-02T06:56:23;40.03;;;36.00;;
16543;SDS011;8384;47.996;7.786;2023-03-02T06:58:49;39.60;;;35.50;;
16543;SDS011;8384;47.996;7.786;2023-03-02T07:01:14;40.22;;;36.22;;
16543;SDS011;8384;47.996;7.786;2023-03-02T07:03:40;39.00;;;34.97;;
16543;SDS011;8384;47.996;7.786;2023-03-02T07:06:05;39.60;;;35.70;;
16543;SDS011;8384;47.996;7.786;2023-03-02T07:08:31;40.00;;;36.00;;
16543;SDS011;8384;47.996;7.786;2023-03-02T07:10:56;38.70;;;34.92;;
16543;SDS011;8384;47.996;7.786;2023-03-02T07:13:21;39.43;;;35.50;;
16543;SDS011;8384;47.996;7.786;2023-03-02T07:15:47;39.70;;;35.70;;
16543;SDS011;8384;47.996;7.786;2023-03-02T07:18:12;39.77;;;35.87;;
16543;SDS011;8384;47.996;7.786;2023-03-02T07:20:37;39.67;;;35.80;;
16543;SDS011;8384;47.996;7.786;2023-03-02T07:23:03;39.05;;;35.25;;
16543;SDS011;8384;47.996;7.786;2023-03-02T07:25:29;39.35;;;35.25;;
16543;SDS011;8384;47.996;7.786;2023-03-02T07:27:55;39.67;;;35.77;;
16543;SDS011;8384;47.996;7.786;2023-03-02T07:30:21;39.25;;;35.33;;
16543;SDS011;8384;47.996;7.786;2023-03-02T07:32:46;39.43;;;35.53;;
16543;SDS011;8384;47.996;7.786;2023-03-02T07:35:12;38.38;;;34.40;;
16543;SDS011;8384;47.996;7.786;2023-03-02T07:37:37;39.90;;;36.00;;
16543;SDS011;8384;47.996;7.786;2023-03-02T07:40:03;39.63;;;35.73;;
16543;SDS011;8384;47.996;7.786;2023-03-02T07:42:30;38.38;;;34.58;;
16543;SDS011;8384;47.996;7.786;2023-03-02T07:44:56;39.75;;;35.83;;
16543;SDS011;8384;47.996;7.786;2023-03-02T07:47:21;39.50;;;35.50;;
16543;SDS011;8384;47.996;7.786;2023-03-02T07:49:46;40.37;;;36.27;;
16543;SDS011;8384;47.996;7.786;2023-03-02T07:52:12;40.00;;;36.00;;
16543;SDS011;8384;47.996;7.786;2023-03-02T07:54:37;40.37;;;36.27;;
16543;SDS011;8384;47.996;7.786;2023-03-02T07:57:02;40.20;;;36.20;;
16543;SDS011;8384;47.996;7.786;2023-03-02T07:59:28;39.08;;;35.22;;
16543;SDS011;8384;47.996;7.786;2023-03-02T08:01:54;40.30;;;36.30;;
16543;SDS011;8384;47.996;7.786;2023-03-02T08:04:20;39.55;;;35.55;;
16543;SDS011;8384;47.996;7.786;2023-03-02T08:06:45;41.17;;;36.97;;
16543;SDS011;8384;47.996;7.786;2023-03-02T08:09:10;39.50;;;35.57;;
16543;SDS011;8384;47.996;7.786;2023-03-02T08:11:36;39.27;;;35.37;;
16543;SDS011;8384;47.996;7.786;2023-03-02T08:14:01;39.63;;;35.67;;
16543;SDS011;8384;47.996;7.786;2023-03-02T08:16:27;39.58;;;35.75;;
16543;SDS011;8384;47.996;7.786;2023-03-02T08:18:53;40.03;;;36.10;;
16543;SDS011;8384;47.996;7.786;2023-03-02T08:21:19;40.33;;;36.28;;
16543;SDS011;8384;47.996;7.786;2023-03-02T08:23:46;40.10;;;36.20;;
16543;SDS011;8384;47.996;7.786;2023-03-02T08:26:12;39.63;;;35.63;;
16543;SDS011;8384;47.996;7.786;2023-03-02T08:28:38;41.55;;;37.42;;
16543;SDS011;8384;47.996;7.786;2023-03-02T08:31:04;40.57;;;36.57;;
16543;SDS011;8384;47.996;7.786;2023-03-02T08:33:31;38.28;;;34.53;;
16543;SDS011;8384;47.996;7.786;2023-03-02T08:36:04;41.45;;;37.35;;
16543;SDS011;8384;47.996;7.786;2023-03-02T08:38:31;38.70;;;34.88;;
16543;SDS011;8384;47.996;7.786;2023-03-02T08:40:57;38.00;;;34.20;;
16543;SDS011;8384;47.996;7.786;2023-03-02T08:43:26;38.22;;;34.53;;
16543;SDS011;8384;47.996;7.786;2023-03-02T08:45:52;39.80;;;36.00;;
16543;SDS011;8384;47.996;7.786;2023-03-02T08:48:21;39.45;;;35.53;;
16543;SDS011;8384;47.996;7.786;2023-03-02T08:50:54;39.13;;;35.13;;
16543;SDS011;8384;47.996;7.786;2023-03-02T08:53:23;39.58;;;35.67;;
16543;SDS011;8384;47.996;7.786;2023-03-02T08:55:48;39.27;;;35.30;;
16543;SDS011;8384;47.996;7.786;2023-03-02T08:58:14;38.97;;;35.07;;
16543;SDS011;8384;47.996;7.786;2023-03-02T09:00:39;39.73;;;35.73;;
16543;SDS011;8384;47.996;7.786;2023-03-02T09:03:04;38.57;;;34.77;;
16543;SDS011;8384;47.996;7.786;2023-03-02T09:05:29;38.40;;;34.60;;
16543;SDS011;8384;47.996;7.786;2023-03-02T09:07:55;38.30;;;34.60;;
16543;SDS011;8384;47.996;7.786;2023-03-02T09:10:20;38.23;;;34.50;;
16543;SDS011;8384;47.996;7.786;2023-03-02T09:12:45;38.25;;;34.47;;
16543;SDS011;8384;47.996;7.786;2023-03-02T09:15:11;38.27;;;34.57;;
16543;SDS011;8384;47.996;7.786;2023-03-02T09:17:36;39.47;;;35.57;;
16543;SDS011;8384;47.996;7.786;2023-03-02T09:20:01;37.53;;;33.97;;
16543;SDS011;8384;47.996;7.786;2023-03-02T09:22:27;36.90;;;33.30;;
16543;SDS011;8384;47.996;7.786;2023-03-02T09:24:52;38.53;;;34.63;;
16543;SDS011;8384;47.996;7.786;2023-03-02T09:27:18;37.60;;;34.00;;
16543;SDS011;8384;47.996;7.786;2023-03-02T09:29:43;38.47;;;34.67;;
16543;SDS011;8384;47.996;7.786;2023-03-02T09:32:08;37.13;;;33.60;;
16543;SDS011;8384;47.996;7.786;2023-03-02T09:34:33;38.13;;;34.43;;
16543;SDS011;8384;47.996;7.786;2023-03-02T09:36:59;37.43;;;33.73;;
16543;SDS011;8384;47.996;7.786;2023-03-02T09:39:24;37.77;;;33.97;;
16543;SDS011;8384;47.996;7.786;2023-03-02T09:41:56;38.27;;;34.57;;
16543;SDS011;8384;47.996;7.786;2023-03-02T09:49:54;37.50;;;33.90;;
16543;SDS011;8384;47.996;7.786;2023-03-02T09:55:15;38.75;;;34.95;;
16543;SDS011;8384;47.996;7.786;2023-03-02T09:57:46;38.22;;;34.53;;
16543;SDS011;8384;47.996;7.786;2023-03-02T10:00:12;38.27;;;34.57;;
16543;SDS011;8384;47.996;7.786;2023-03-02T10:02:48;37.88;;;34.28;;
16543;SDS011;8384;47.996;7.786;2023-03-02T10:05:22;38.42;;;34.63;;
16543;SDS011;8384;47.996;7.786;2023-03-02T10:07:51;38.47;;;34.78;;
16543;SDS011;8384;47.996;7.786;2023-03-02T10:12:53;39.00;;;35.25;;
16543;SDS011;8384;47.996;7.786;2023-03-02T10:15:27;38.97;;;35.25;;
16543;SDS011;8384;47.996;7.786;2023-03-02T10:18:03;38.97;;;35.28;;
16543;SDS011;8384;47.996;7.786;2023-03-02T10:20:41;39.53;;;35.72;;
16543;SDS011;8384;47.996;7.786;2023-03-02T10:23:26;38.70;;;34.92;;
16543;SDS011;8384;47.996;7.786;2023-03-02T10:26:41;39.60;;;35.78;;
16543;SDS011;8384;47.996;7.786;2023-03-02T10:31:52;37.65;;;34.00;;
16543;SDS011;8384;47.996;7.786;2023-03-02T10:34:25;38.75;;;35.15;;
16543;SDS011;8384;47.996;7.786;2023-03-02T10:36:53;36.88;;;33.33;;
16543;SDS011;8384;47.996;7.786;2023-03-02T10:39:18;38.27;;;34.57;;
16543;SDS011;8384;47.996;7.786;2023-03-02T10:41:49;39.47;;;35.70;;
16543;SDS011;8384;47.996;7.786;2023-03-02T10:44:24;37.37;;;33.90;;
16543;SDS011;8384;47.996;7.786;2023-03-02T10:47:04;39.03;;;35.33;;
16543;SDS011;8384;47.996;7.786;2023-03-02T10:49:32;39.78;;;35.92;;
16543;SDS011;8384;47.996;7.786;2023-03-02T10:52:03;38.38;;;34.78;;
16543;SDS011;8384;47.996;7.786;2023-03-02T10:54:31;38.30;;;34.53;;
16543;SDS011;8384;47.996;7.786;2023-03-02T10:57:01;37.80;;;34.20;;
16543;SDS011;8384;47.996;7.786;2023-03-02T10:59:37;38.65;;;34.92;;
16543;SDS011;8384;47.996;7.786;2023-03-02T11:04:46;38.78;;;34.95;;
16543;SDS011;8384;47.996;7.786;2023-03-02T11:07:19;39.27;;;35.37;;
16543;SDS011;8384;47.996;7.786;2023-03-02T11:09:56;38.83;;;34.92;;
16543;SDS011;8384;47.996;7.786;2023-03-02T11:12:21;39.60;;;35.78;;
16543;SDS011;8384;47.996;7.786;2023-03-02T11:14:47;39.35;;;35.55;;
16543;SDS011;8384;47.996;7.786;2023-03-02T11:17:28;39.30;;;35.37;;
16543;SDS011;8384;47.996;7.786;2023-03-02T11:19:57;38.15;;;34.58;;
16543;SDS011;8384;47.996;7.786;2023-03-02T11:22:44;38.70;;;35.10;;
16543;SDS011;8384;47.996;7.786;2023-03-02T11:25:15;38.45;;;34.83;;
16543;SDS011;8384;47.996;7.786;2023-03-02T11:27:59;39.40;;;35.65;;
16543;SDS011;8384;47.996;7.786;2023-03-02T11:30:33;38.27;;;34.77;;
16543;SDS011;8384;47.996;7.786;2023-03-02T11:33:08;38.25;;;34.60;;
16543;SDS011;8384;47.996;7.786;2023-03-02T11:35:37;38.42;;;34.83;;
16543;SDS011;8384;47.996;7.786;2023-03-02T11:38:26;38.20;;;34.60;;
16543;SDS011;8384;47.996;7.786;2023-03-02T11:41:03;39.25;;;35.53;;
16543;SDS011;8384;47.996;7.786;2023-03-02T11:43:37;38.88;;;35.22;;
16543;SDS011;8384;47.996;7.786;2023-03-02T11:46:04;37.97;;;34.43;;
16543;SDS011;8384;47.996;7.786;2023-03-02T11:51:12;38.70;;;34.92;;
16543;SDS011;8384;47.996;7.786;2023-03-02T11:53:44;37.85;;;34.25;;
16543;SDS011;8384;47.996;7.786;2023-03-02T11:56:14;37.42;;;33.85;;
16543;SDS011;8384;47.996;7.786;2023-03-02T11:58:40;38.58;;;34.88;;
16543;SDS011;8384;47.996;7.786;2023-03-02T12:01:12;38.53;;;34.92;;
16543;SDS011;8384;47.996;7.786;2023-03-02T12:03:42;38.53;;;34.93;;
16543;SDS011;8384;47.996;7.786;2023-03-02T12:08:47;38.38;;;34.78;;
16543;SDS011;8384;47.996;7.786;2023-03-02T12:16:33;37.47;;;33.90;;
16543;SDS011;8384;47.996;7.786;2023-03-02T12:19:11;38.42;;;34.83;;
16543;SDS011;8384;47.996;7.786;2023-03-02T12:21:57;39.13;;;35.33;;
16543;SDS011;8384;47.996;7.786;2023-03-02T12:24:33;40.00;;;36.10;;
16543;SDS011;8384;47.996;7.786;2023-03-02T12:30:29;39.25;;;35.47;;
16543;SDS011;8384;47.996;7.786;2023-03-02T12:32:32;38.50;;;34.70;;
16543;SDS011;8384;47.996;7.786;2023-03-02T12:37:40;40.15;;;36.25;;
16543;SDS011;8384;47.996;7.786;2023-03-02T12:43:02;37.88;;;34.28;;
16543;SDS011;8384;47.996;7.786;2023-03-02T12:48:40;38.03;;;34.40;;
16543;SDS011;8384;47.996;7.786;2023-03-02T12:51:13;37.90;;;34.22;;
16543;SDS011;8384;47.996;7.786;2023-03-02T12:54:00;38.00;;;34.30;;
16543;SDS011;8384;47.996;7.786;2023-03-02T12:56:30;39.03;;;35.22;;
16543;SDS011;8384;47.996;7.786;2023-03-02T12:58:56;38.33;;;34.65;;
16543;SDS011;8384;47.996;7.786;2023-03-02T13:01:22;39.70;;;35.90;;
16543;SDS011;8384;47.996;7.786;2023-03-02T13:03:50;38.70;;;35.00;;
16543;SDS011;8384;47.996;7.786;2023-03-02T13:06:17;40.08;;;36.03;;
16543;SDS011;8384;47.996;7.786;2023-03-02T13:08:44;40.20;;;36.30;;
16543;SDS011;8384;47.996;7.786;2023-03-02T13:11:12;39.67;;;35.72;;
16543;SDS011;8384;47.996;7.786;2023-03-02T13:13:44;38.45;;;34.65;;
16543;SDS011;8384;47.996;7.786;2023-03-02T13:16:20;38.13;;;34.43;;
16543;SDS011;8384;47.996;7.786;2023-03-02T13:18:47;38.35;;;34.65;;
16543;SDS011;8384;47.996;7.786;2023-03-02T13:21:14;39.33;;;35.53;;
16543;SDS011;8384;47.996;7.786;2023-03-02T13:23:47;39.78;;;35.80;;
16543;SDS011;8384;47.996;7.786;2023-03-02T13:26:24;39.25;;;35.45;;
16543;SDS011;8384;47.996;7.786;2023-03-02T13:31:36;41.03;;;36.83;;
16543;SDS011;8384;47.996;7.786;2023-03-02T13:34:01;40.10;;;36.20;;
16543;SDS011;8384;47.996;7.786;2023-03-02T13:36:27;39.90;;;35.83;;
16543;SDS011;8384;47.996;7.786;2023-03-02T13:38:58;39.72;;;35.63;;
16543;SDS011;8384;47.996;7.786;2023-03-02T13:41:25;39.03;;;35.10;;
16543;SDS011;8384;47.996;7.786;2023-03-02T13:43:55;39.65;;;35.55;;
16543;SDS011;8384;47.996;7.786;2023-03-02T13:48:53;38.57;;;34.77;;
16543;SDS011;8384;47.996;7.786;2023-03-02T13:51:19;39.08;;;35.10;;
16543;SDS011;8384;47.996;7.786;2023-03-02T13:53:52;37.95;;;34.22;;
16543;SDS011;8384;47.996;7.786;2023-03-02T13:56:25;39.30;;;35.25;;
16543;SDS011;8384;47.996;7.786;2023-03-02T13:58:53;38.67;;;34.95;;
16543;SDS011;8384;47.996;7.786;2023-03-02T14:01:19;39.47;;;35.57;;
16543;SDS011;8384;47.996;7.786;2023-03-02T14:03:44;39.57;;;35.57;;
16543;SDS011;8384;47.996;7.786;2023-03-02T14:06:10;39.30;;;35.40;;
16543;SDS011;8384;47.996;7.786;2023-03-02T14:08:35;39.80;;;35.60;;
16543;SDS011;8384;47.996;7.786;2023-03-02T14:11:01;38.87;;;34.97;;
16543;SDS011;8384;47.996;7.786;2023-03-02T14:13:29;38.72;;;34.83;;
16543;SDS011;8384;47.996;7.786;2023-03-02T14:16:01;39.00;;;34.97;;
16543;SDS011;8384;47.996;7.786;2023-03-02T14:20:55;38.60;;;34.75;;
16543;SDS011;8384;47.996;7.786;2023-03-02T14:23:21;38.05;;;34.22;;
16543;SDS011;8384;47.996;7.786;2023-03-02T14:25:48;38.78;;;34.97;;
16543;SDS011;8384;47.996;7.786;2023-03-02T14:28:17;38.70;;;34.73;;
16543;SDS011;8384;47.996;7.786;2023-03-02T14:30:55;39.22;;;35.25;;
16543;SDS011;8384;47.996;7.786;2023-03-02T14:33:21;38.23;;;34.33;;
16543;SDS011;8384;47.996;7.786;2023-03-02T14:35:48;38.75;;;34.78;;
16543;SDS011;8384;47.996;7.786;2023-03-02T14:38:16;38.08;;;34.15;;
16543;SDS011;8384;47.996;7.786;2023-03-02T14:40:41;37.57;;;33.77;;
16543;SDS011;8384;47.996;7.786;2023-03-02T14:43:07;38.53;;;34.47;;
16543;SDS011;8384;47.996;7.786;2023-03-02T14:45:33;37.88;;;34.08;;
16543;SDS011;8384;47.996;7.786;2023-03-02T14:47:58;38.13;;;34.13;;
16543;SDS011;8384;47.996;7.786;2023-03-02T14:50:24;37.23;;;33.53;;
16543;SDS011;8384;47.996;7.786;2023-03-02T14:52:50;38.47;;;34.50;;
16543;SDS011;8384;47.996;7.786;2023-03-02T14:57:47;38.30;;;34.45;;
16543;SDS011;8384;47.996;7.786;2023-03-02T15:00:20;37.83;;;33.93;;
16543;SDS011;8384;47.996;7.786;2023-03-02T15:02:45;38.17;;;34.35;;
16543;SDS011;8384;47.996;7.786;2023-03-02T15:05:12;37.95;;;34.15;;
16543;SDS011;8384;47.996;7.786;2023-03-02T15:07:37;38.08;;;34.28;;
16543;SDS011;8384;47.996;7.786;2023-03-02T15:10:03;38.65;;;34.75;;
16543;SDS011;8384;47.996;7.786;2023-03-02T15:12:29;37.58;;;33.80;;
16543;SDS011;8384;47.996;7.786;2023-03-02T15:14:54;38.47;;;34.55;;
16543;SDS011;8384;47.996;7.786;2023-03-02T15:17:19;38.90;;;34.83;;
16543;SDS011;8384;47.996;7.786;2023-03-02T15:19:45;37.33;;;33.40;;
16543;SDS011;8384;47.996;7.786;2023-03-02T15:22:11;38.65;;;34.60;;
16543;SDS011;8384;47.996;7.786;2023-03-02T15:24:37;38.63;;;34.72;;
16543;SDS011;8384;47.996;7.786;2023-03-02T15:27:02;38.00;;;34.10;;
16543;SDS011;8384;47.996;7.786;2023-03-02T15:29:27;39.78;;;35.67;;